Time;durP1;ratioP1;P1;durP2;ratioP2;P2;SDS_P1;SDS_P2;PMS_P1;PMS_P2;Temp;Humidity;BMP_temperature;BMP_pressure;BME280_temperature;BME280_humidity;BME280_pressure;Samples;Min_cycle;Max_cycle;Signal;HPM_P1;HPM_P2
2024/01/03 00:01:27;;;;;;;7.80;2.67;;;14.10;67.10;;;;;;5028935;28;20034;-54
2024/01/03 00:03:59;;;;;;;6.75;2.53;;;14.10;67.30;;;;;;5025541;28;20033;-59
2024/01/03 00:06:34;;;;;;;14.32;3.05;;;14.10;67.30;;;;;;5027601;28;20037;-56
2024/01/03 00:09:05;;;;;;;9.15;2.88;;;14.10;67.10;;;;;;5011146;28;20087;-53
2024/01/03 00:11:32;;;;;;;9.63;3.28;;;14.10;68.00;;;;;;5032182;28;20504;-55
2024/01/03 00:14:07;;;;;;;7.28;2.10;;;14.10;67.70;;;;;;5028600;28;20554;-52
2024/01/03 00:16:41;;;;;;;8.50;2.13;;;14.10;67.70;;;;;;5027347;28;20491;-56
2024/01/03 00:19:18;;;;;;;9.40;2.58;;;14.10;67.90;;;;;;5026270;28;20048;-57
2024/01/03 00:21:48;;;;;;;7.47;2.10;;;14.00;68.20;;;;;;5030524;28;20046;-54
2024/01/03 00:24:18;;;;;;;7.13;2.63;;;14.00;68.30;;;;;;5032187;28;20051;-54
2024/01/03 00:26:45;;;;;;;11.48;2.80;;;14.00;68.80;;;;;;5030054;28;20337;-54
2024/01/03 00:29:26;;;;;;;9.57;2.47;;;13.90;69.10;;;;;;5011208;28;20585;-57
2024/01/03 00:31:53;;;;;;;10.23;2.25;;;13.80;69.60;;;;;;5031945;28;20061;-52
2024/01/03 00:34:21;;;;;;;9.18;2.67;;;13.80;70.00;;;;;;5013668;28;20072;-56
2024/01/03 00:36:55;;;;;;;9.15;2.75;;;13.60;70.30;;;;;;5012740;28;20042;-56
2024/01/03 00:39:33;;;;;;;13.02;2.42;;;13.60;71.00;;;;;;5013069;28;20050;-54
2024/01/03 00:42:04;;;;;;;7.78;2.80;;;13.50;71.40;;;;;;5031375;28;20057;-54
2024/01/03 00:44:33;;;;;;;7.80;2.30;;;13.50;71.80;;;;;;5027321;28;20488;-58
2024/01/03 00:47:04;;;;;;;8.65;2.05;;;13.40;72.30;;;;;;5031089;28;20044;-58
2024/01/03 00:49:31;;;;;;;10.90;3.35;;;13.30;72.80;;;;;;5026112;28;20041;-58
2024/01/03 00:52:00;;;;;;;3.72;1.60;;;13.20;73.00;;;;;;5030439;28;20061;-55
2024/01/03 00:54:30;;;;;;;13.00;2.40;;;13.20;73.30;;;;;;5008539;28;20567;-59
2024/01/03 00:57:08;;;;;;;6.72;2.53;;;13.10;73.90;;;;;;5027179;28;20061;-56
2024/01/03 00:59:37;;;;;;;7.95;2.95;;;13.00;73.80;;;;;;5008556;28;20054;-58
2024/01/03 01:02:05;;;;;;;10.88;2.45;;;13.00;73.90;;;;;;5013357;28;20496;-55
2024/01/03 01:04:40;;;;;;;8.38;2.15;;;12.90;74.00;;;;;;5030579;28;20640;-55
2024/01/03 01:07:07;;;;;;;6.15;2.25;;;12.90;74.00;;;;;;5027316;28;20103;-56
2024/01/03 01:09:33;;;;;;;6.07;2.25;;;12.80;74.00;;;;;;5012763;28;20091;-55
2024/01/03 01:12:02;;;;;;;7.30;2.55;;;12.80;74.00;;;;;;5013046;28;20119;-55
2024/01/03 01:14:32;;;;;;;4.65;1.90;;;12.80;74.00;;;;;;5012807;28;20037;-52
2024/01/03 01:17:00;;;;;;;10.25;2.45;;;12.80;74.70;;;;;;5012120;28;20099;-56
2024/01/03 01:19:27;;;;;;;7.63;1.92;;;12.80;74.00;;;;;;5009717;28;20120;-56
2024/01/03 01:21:54;;;;;;;7.80;2.30;;;12.80;73.90;;;;;;5013174;28;20049;-52
2024/01/03 01:24:28;;;;;;;8.40;2.00;;;12.80;73.80;;;;;;5024985;28;20079;-57
2024/01/03 01:26:54;;;;;;;6.60;2.35;;;12.80;73.80;;;;;;5006794;28;20095;-52
2024/01/03 01:29:23;;;;;;;8.05;2.20;;;12.80;73.70;;;;;;5012239;28;20041;-55
2024/01/03 01:31:55;;;;;;;4.00;2.17;;;12.80;74.00;;;;;;5030798;28;20408;-53
2024/01/03 01:34:24;;;;;;;5.07;1.52;;;12.90;74.00;;;;;;5026523;28;20056;-55
2024/01/03 01:36:54;;;;;;;8.68;3.08;;;12.90;74.00;;;;;;5030043;28;20041;-56
2024/01/03 01:39:24;;;;;;;7.80;2.42;;;12.90;74.20;;;;;;5006353;28;20045;-56
2024/01/03 01:41:51;;;;;;;7.28;2.25;;;12.90;73.90;;;;;;5011238;28;20136;-53
2024/01/03 01:44:23;;;;;;;4.32;1.67;;;12.90;73.80;;;;;;5012048;28;20411;-55
2024/01/03 01:46:50;;;;;;;5.82;1.48;;;12.90;73.70;;;;;;5012017;28;20128;-57
2024/01/03 01:49:21;;;;;;;7.53;1.75;;;13.00;74.10;;;;;;5008597;28;20069;-57
2024/01/03 01:51:48;;;;;;;8.05;1.75;;;13.00;74.20;;;;;;5009750;28;20801;-52
2024/01/03 01:54:16;;;;;;;6.55;2.13;;;13.00;74.10;;;;;;5028448;28;20038;-54
2024/01/03 01:56:43;;;;;;;4.07;1.90;;;13.00;74.80;;;;;;5029275;28;20257;-55
2024/01/03 01:59:13;;;;;;;6.75;2.22;;;13.00;74.40;;;;;;5009421;28;20120;-52
2024/01/03 02:01:43;;;;;;;5.00;1.90;;;13.00;74.60;;;;;;5012234;28;20045;-52
2024/01/03 02:04:13;;;;;;;3.92;1.52;;;13.00;74.70;;;;;;5011556;28;20049;-56
2024/01/03 02:06:43;;;;;;;10.68;2.40;;;13.10;74.80;;;;;;5008441;28;20077;-54
2024/01/03 02:09:11;;;;;;;6.45;1.70;;;13.00;74.70;;;;;;5027096;28;20087;-56
2024/01/03 02:11:44;;;;;;;7.72;1.80;;;13.00;74.80;;;;;;5029437;28;20049;-52
2024/01/03 02:14:11;;;;;;;5.40;1.73;;;13.00;74.80;;;;;;5012190;28;20416;-57
2024/01/03 02:16:41;;;;;;;6.63;1.80;;;12.90;74.70;;;;;;5010226;28;20073;-56
2024/01/03 02:19:15;;;;;;;6.68;1.38;;;13.00;74.80;;;;;;5009124;28;20669;-54
2024/01/03 02:21:46;;;;;;;7.40;1.83;;;12.90;74.70;;;;;;5028672;28;20496;-57
2024/01/03 02:24:20;;;;;;;6.35;1.63;;;13.00;74.70;;;;;;5030094;28;20057;-54
2024/01/03 02:26:50;;;;;;;3.25;1.50;;;13.00;74.50;;;;;;5028943;28;20645;-55
2024/01/03 02:29:19;;;;;;;3.13;1.05;;;13.00;74.20;;;;;;5024248;28;20143;-52
2024/01/03 02:31:46;;;;;;;5.43;1.45;;;13.00;74.20;;;;;;5029671;28;20041;-57
2024/01/03 02:34:13;;;;;;;5.70;1.90;;;13.00;74.20;;;;;;5029147;28;20503;-55
2024/01/03 02:36:42;;;;;;;4.50;1.38;;;13.00;73.90;;;;;;5025814;28;20068;-52
2024/01/03 02:39:11;;;;;;;3.45;1.50;;;13.00;73.80;;;;;;5028218;28;20036;-53
2024/01/03 02:41:41;;;;;;;4.40;1.38;;;13.10;73.70;;;;;;5029028;28;20049;-53
2024/01/03 02:44:12;;;;;;;3.53;1.48;;;13.10;73.50;;;;;;5028336;28;20095;-56
2024/01/03 02:46:45;;;;;;;4.55;1.27;;;13.10;73.20;;;;;;5024570;28;20045;-55
2024/01/03 02:49:18;;;;;;;6.10;1.67;;;13.10;73.10;;;;;;5025633;28;20525;-54
2024/01/03 02:51:45;;;;;;;6.80;1.90;;;13.20;73.00;;;;;;5025545;28;20049;-58
2024/01/03 02:54:14;;;;;;;6.40;1.40;;;13.20;72.90;;;;;;5026687;28;20052;-55
2024/01/03 02:56:40;;;;;;;6.68;1.70;;;13.20;73.00;;;;;;5028552;28;20061;-53
2024/01/03 02:59:12;;;;;;;7.15;1.73;;;13.20;72.90;;;;;;5026136;28;20045;-57
2024/01/03 03:01:41;;;;;;;10.13;2.30;;;13.20;72.70;;;;;;5029322;28;20100;-56
2024/01/03 03:04:12;;;;;;;3.50;1.25;;;13.20;72.60;;;;;;5028532;28;20137;-52
2024/01/03 03:06:39;;;;;;;6.60;1.40;;;13.20;72.60;;;;;;5027609;28;20503;-52
2024/01/03 03:09:09;;;;;;;6.35;1.95;;;13.20;72.60;;;;;;5025733;28;20400;-52
2024/01/03 03:11:43;;;;;;;4.97;2.47;;;13.20;72.60;;;;;;5029125;28;20050;-55
2024/01/03 03:14:10;;;;;;;11.68;2.40;;;13.20;72.60;;;;;;5029228;28;20037;-54
2024/01/03 03:16:38;;;;;;;3.47;1.30;;;13.20;73.10;;;;;;5026408;28;20510;-52
2024/01/03 03:19:05;;;;;;;7.38;1.95;;;13.10;73.40;;;;;;5025064;28;20040;-54
2024/01/03 03:21:37;;;;;;;4.50;1.30;;;13.10;73.90;;;;;;5031385;28;20458;-57
2024/01/03 03:24:09;;;;;;;4.93;1.60;;;13.10;74.10;;;;;;5032997;28;20052;-52
2024/01/03 03:26:36;;;;;;;4.57;0.98;;;13.00;74.30;;;;;;5028582;28;20069;-54
2024/01/03 03:29:03;;;;;;;5.72;1.52;;;12.90;74.50;;;;;;5029188;28;20133;-56
2024/01/03 03:31:32;;;;;;;6.57;1.70;;;12.80;75.20;;;;;;5032603;28;20486;-58
2024/01/03 03:34:01;;;;;;;5.15;1.70;;;12.70;75.40;;;;;;5032411;28;20088;-57
2024/01/03 03:36:28;;;;;;;6.55;1.65;;;12.70;75.70;;;;;;5028385;28;20033;-56
2024/01/03 03:38:59;;;;;;;4.22;1.17;;;12.60;76.10;;;;;;5029947;28;20057;-56
2024/01/03 03:41:42;;;;;;;3.78;1.20;;;12.60;76.40;;;;;;5032264;28;20040;-56
2024/01/03 03:44:17;;;;;;;3.30;1.13;;;12.50;76.40;;;;;;5027179;28;20593;-55
2024/01/03 03:46:46;;;;;;;5.10;1.70;;;12.50;76.70;;;;;;5025258;28;21024;-55
2024/01/03 03:49:16;;;;;;;4.68;1.45;;;12.50;76.90;;;;;;5027056;28;20593;-52
2024/01/03 03:51:43;;;;;;;3.72;1.13;;;12.40;76.80;;;;;;5027753;28;20045;-56
2024/01/03 03:54:09;;;;;;;5.40;1.23;;;12.40;77.00;;;;;;5027311;28;20045;-53
2024/01/03 03:56:36;;;;;;;3.75;1.92;;;12.40;77.20;;;;;;5030534;28;20069;-55
2024/01/03 03:59:07;;;;;;;6.72;1.25;;;12.40;77.20;;;;;;5028999;28;20037;-53
2024/01/03 04:01:35;;;;;;;5.50;1.23;;;12.40;77.20;;;;;;5032056;28;20498;-56
2024/01/03 04:04:05;;;;;;;2.58;1.05;;;12.40;77.30;;;;;;5031701;28;20044;-58
2024/01/03 04:06:32;;;;;;;5.68;1.48;;;12.30;77.40;;;;;;5029692;28;20124;-56
2024/01/03 04:08:59;;;;;;;5.50;1.27;;;12.40;77.50;;;;;;5027713;28;20041;-59
2024/01/03 04:11:25;;;;;;;5.32;1.45;;;12.40;77.40;;;;;;5032247;28;20037;-56
2024/01/03 04:13:54;;;;;;;6.20;1.95;;;12.40;77.50;;;;;;5032220;28;20045;-57
2024/01/03 04:16:23;;;;;;;10.98;2.22;;;12.40;77.50;;;;;;5028185;28;20088;-55
2024/01/03 04:18:50;;;;;;;6.00;1.58;;;12.40;77.50;;;;;;5026946;28;20041;-56
2024/01/03 04:21:25;;;;;;;6.70;1.67;;;12.40;77.50;;;;;;5031085;28;20117;-56
2024/01/03 04:23:57;;;;;;;5.32;1.75;;;12.40;77.20;;;;;;5029916;28;20054;-53
2024/01/03 04:26:32;;;;;;;6.78;1.85;;;12.40;77.20;;;;;;5028705;28;20048;-52
2024/01/03 04:29:03;;;;;;;5.82;1.80;;;12.40;77.00;;;;;;5018697;28;20127;-56
2024/01/03 04:31:32;;;;;;;9.52;2.05;;;12.50;77.20;;;;;;5030909;28;20041;-56
2024/01/03 04:34:00;;;;;;;9.35;2.15;;;12.50;77.30;;;;;;5027955;28;20088;-55
2024/01/03 04:36:27;;;;;;;6.80;1.63;;;12.50;77.20;;;;;;5013658;28;20060;-56
2024/01/03 04:38:56;;;;;;;6.97;1.73;;;12.50;77.30;;;;;;5026089;28;20042;-52
2024/01/03 04:41:25;;;;;;;6.47;2.05;;;12.50;77.20;;;;;;5031199;28;20091;-59
2024/01/03 04:43:51;;;;;;;6.88;1.45;;;12.40;77.00;;;;;;5029301;28;20064;-57
2024/01/03 04:46:19;;;;;;;3.50;0.95;;;12.50;76.80;;;;;;5022824;28;20084;-53
2024/01/03 04:48:46;;;;;;;5.43;1.30;;;12.40;76.50;;;;;;5023762;28;20536;-56
2024/01/03 04:51:15;;;;;;;3.38;0.90;;;12.50;76.40;;;;;;5027994;28;20491;-58
2024/01/03 04:53:48;;;;;;;4.47;1.02;;;12.40;76.30;;;;;;5023350;28;20052;-55
2024/01/03 04:56:14;;;;;;;2.72;1.30;;;12.50;76.20;;;;;;5029921;28;20411;-57
2024/01/03 04:58:44;;;;;;;3.95;0.80;;;12.40;76.00;;;;;;5026480;28;20041;-55
2024/01/03 05:01:11;;;;;;;3.90;0.95;;;12.50;76.20;;;;;;5025619;28;20091;-54
2024/01/03 05:03:45;;;;;;;3.13;1.05;;;12.50;76.30;;;;;;5030970;28;20121;-55
2024/01/03 05:06:14;;;;;;;4.10;1.00;;;12.50;76.30;;;;;;5025997;28;20042;-58
2024/01/03 05:08:47;;;;;;;2.97;0.80;;;12.50;76.40;;;;;;5018515;28;20049;-53
2024/01/03 05:11:22;;;;;;;5.88;1.63;;;12.60;76.50;;;;;;5030950;28;20064;-55
2024/01/03 05:13:51;;;;;;;3.28;1.20;;;12.60;76.40;;;;;;5023669;28;20061;-55
2024/01/03 05:16:20;;;;;;;2.65;0.80;;;12.60;77.10;;;;;;5026238;28;20048;-55
2024/01/03 05:18:47;;;;;;;3.28;1.30;;;12.60;76.50;;;;;;5022183;28;20038;-56
2024/01/03 05:21:16;;;;;;;6.13;1.10;;;12.60;76.50;;;;;;5029406;28;20068;-53
2024/01/03 05:23:49;;;;;;;4.47;1.17;;;12.70;76.60;;;;;;5030679;28;20050;-56
2024/01/03 05:26:16;;;;;;;8.55;2.08;;;12.70;76.40;;;;;;5029375;28;20121;-54
2024/01/03 05:28:43;;;;;;;5.68;1.67;;;12.70;76.50;;;;;;5016684;28;20066;-55
2024/01/03 05:31:10;;;;;;;5.40;1.10;;;12.70;76.50;;;;;;5028058;28;20557;-57
2024/01/03 05:33:38;;;;;;;4.32;1.60;;;12.70;76.40;;;;;;5023180;28;20060;-56
2024/01/03 05:36:07;;;;;;;4.18;1.35;;;12.80;76.50;;;;;;5025221;28;20181;-57
2024/01/03 05:38:38;;;;;;;4.45;1.25;;;12.70;76.40;;;;;;5025392;28;20049;-56
2024/01/03 05:41:08;;;;;;;4.25;1.42;;;12.80;76.50;;;;;;5030104;28;20535;-59
2024/01/03 05:43:37;;;;;;;6.30;1.60;;;12.80;76.50;;;;;;5028539;28;20053;-55
2024/01/03 05:46:04;;;;;;;4.72;1.73;;;12.80;76.50;;;;;;5021685;28;20037;-57
2024/01/03 05:48:30;;;;;;;3.35;1.70;;;12.80;76.60;;;;;;5019955;28;20103;-55
2024/01/03 05:51:06;;;;;;;6.90;2.25;;;12.80;76.80;;;;;;5025330;28;20048;-56
2024/01/03 05:53:32;;;;;;;6.45;2.10;;;12.80;76.90;;;;;;5023226;28;20041;-56
2024/01/03 05:55:59;;;;;;;5.97;1.80;;;12.70;77.00;;;;;;5027288;28;20396;-52
2024/01/03 05:58:26;;;;;;;8.98;1.70;;;12.70;77.10;;;;;;4991849;28;20077;-53
2024/01/03 06:00:53;;;;;;;6.30;1.92;;;12.70;77.40;;;;;;5022768;28;20080;-57
2024/01/03 06:03:20;;;;;;;5.78;1.95;;;12.70;77.60;;;;;;5029907;28;20140;-58
2024/01/03 06:05:50;;;;;;;8.98;2.13;;;12.60;77.90;;;;;;5030211;28;20260;-54
2024/01/03 06:08:19;;;;;;;5.70;1.83;;;12.60;78.30;;;;;;5019322;28;20046;-56
2024/01/03 06:10:51;;;;;;;6.18;1.85;;;12.50;78.50;;;;;;5025314;28;20053;-57
2024/01/03 06:13:20;;;;;;;8.63;2.30;;;12.50;78.90;;;;;;5029914;28;20454;-56
2024/01/03 06:15:50;;;;;;;9.77;3.30;;;12.50;79.00;;;;;;5009303;28;20043;-57
2024/01/03 06:18:16;;;;;;;6.05;2.35;;;12.50;79.30;;;;;;5022367;28;20043;-53
2024/01/03 06:20:55;;;;;;;8.50;2.67;;;12.40;79.60;;;;;;5024199;28;20044;-58
2024/01/03 06:23:24;;;;;;;6.10;2.10;;;12.40;79.90;;;;;;5029502;28;20037;-58
2024/01/03 06:25:59;;;;;;;7.93;2.03;;;12.40;80.00;;;;;;5022848;28;20041;-57
2024/01/03 06:28:26;;;;;;;8.68;2.28;;;12.40;80.30;;;;;;5021972;28;20163;-53
2024/01/03 06:30:55;;;;;;;6.80;1.98;;;12.40;80.60;;;;;;5029310;28;20667;-53
2024/01/03 06:33:22;;;;;;;10.30;2.97;;;12.40;80.80;;;;;;5022462;28;20128;-55
2024/01/03 06:35:52;;;;;;;8.63;2.63;;;12.30;80.90;;;;;;5029255;28;20056;-55
2024/01/03 06:38:18;;;;;;;8.20;2.42;;;12.40;81.10;;;;;;5028323;28;20037;-55
2024/01/03 06:40:45;;;;;;;7.18;2.33;;;12.30;81.20;;;;;;5024532;28;20033;-56
2024/01/03 06:43:12;;;;;;;8.40;2.60;;;12.30;81.30;;;;;;5023520;28;20099;-52
2024/01/03 06:45:39;;;;;;;10.27;2.60;;;12.30;81.40;;;;;;5029141;28;20129;-56
2024/01/03 06:48:07;;;;;;;11.23;3.00;;;12.30;81.30;;;;;;5021583;28;20108;-56
2024/01/03 06:50:34;;;;;;;8.93;2.30;;;12.30;81.50;;;;;;5022682;28;20053;-55
2024/01/03 06:53:00;;;;;;;11.98;3.00;;;12.30;81.50;;;;;;5030212;28;20071;-53
2024/01/03 06:55:33;;;;;;;11.77;3.15;;;12.30;81.50;;;;;;5030487;28;20514;-55
2024/01/03 06:58:02;;;;;;;9.27;2.50;;;12.30;81.50;;;;;;5023074;28;20772;-56
2024/01/03 07:00:29;;;;;;;11.85;3.10;;;12.30;81.40;;;;;;5026269;28;20518;-53
2024/01/03 07:02:56;;;;;;;11.02;2.75;;;12.30;81.50;;;;;;5034268;28;20129;-56
2024/01/03 07:05:23;;;;;;;16.38;3.10;;;12.30;81.50;;;;;;5033498;28;20136;-52
2024/01/03 07:07:54;;;;;;;15.32;2.75;;;12.30;81.40;;;;;;5026973;28;20037;-54
2024/01/03 07:10:31;;;;;;;8.50;2.80;;;12.30;81.40;;;;;;5033036;28;20088;-55
2024/01/03 07:13:01;;;;;;;11.40;2.83;;;12.40;81.20;;;;;;5017150;28;20045;-57
2024/01/03 07:15:28;;;;;;;11.57;2.60;;;12.40;81.10;;;;;;5029813;28;20053;-53
2024/01/03 07:17:55;;;;;;;12.20;2.65;;;12.40;81.00;;;;;;5022123;28;20058;-53
2024/01/03 07:20:28;;;;;;;8.68;2.83;;;12.40;80.90;;;;;;5028423;28;20691;-54
2024/01/03 07:22:54;;;;;;;9.27;3.00;;;12.40;80.60;;;;;;5034243;28;20041;-57
2024/01/03 07:25:24;;;;;;;10.52;3.42;;;12.40;80.50;;;;;;5030823;28;20397;-55
2024/01/03 07:27:52;;;;;;;20.67;3.80;;;12.40;80.50;;;;;;5027873;28;20087;-55
2024/01/03 07:30:19;;;;;;;13.13;2.25;;;12.40;80.70;;;;;;5033460;28;20099;-59
2024/01/03 07:32:52;;;;;;;9.88;2.88;;;12.40;82.30;;;;;;5028086;28;20069;-56
2024/01/03 07:35:24;;;;;;;8.55;1.40;;;12.40;82.80;;;;;;5028644;28;20065;-55
2024/01/03 07:37:51;;;;;;;6.93;1.70;;;12.30;82.80;;;;;;5032842;28;20045;-53
2024/01/03 07:40:20;;;;;;;5.55;1.58;;;12.20;83.20;;;;;;5015824;28;20037;-55
2024/01/03 07:42:49;;;;;;;3.25;0.80;;;12.10;83.30;;;;;;5033814;28;20522;-56
2024/01/03 07:45:17;;;;;;;5.35;1.52;;;12.00;83.60;;;;;;5026608;28;20504;-54
2024/01/03 07:47:48;;;;;;;5.07;1.50;;;12.00;83.90;;;;;;5031560;28;20048;-52
2024/01/03 07:50:14;;;;;;;4.75;1.45;;;11.90;83.90;;;;;;5028756;28;20096;-54
2024/01/03 07:52:44;;;;;;;5.03;1.48;;;11.90;83.90;;;;;;5028423;28;20127;-53
2024/01/03 07:55:13;;;;;;;5.68;1.40;;;11.90;84.30;;;;;;5025762;28;20127;-57
2024/01/03 07:57:43;;;;;;;3.00;1.05;;;11.80;84.60;;;;;;5024015;28;20041;-55
2024/01/03 08:00:15;;;;;;;4.63;1.70;;;11.80;84.60;;;;;;5023560;28;20037;-58
2024/01/03 08:02:44;;;;;;;6.95;1.25;;;11.70;84.80;;;;;;5033255;28;20149;-55
2024/01/03 08:05:11;;;;;;;8.20;2.60;;;11.80;85.00;;;;;;5032576;28;20125;-57
2024/01/03 08:07:43;;;;;;;4.43;1.60;;;11.70;85.10;;;;;;5026418;28;20073;-58
2024/01/03 08:10:12;;;;;;;3.73;1.40;;;11.70;85.30;;;;;;5030730;28;20124;-53
2024/01/03 08:12:39;;;;;;;6.32;1.15;;;11.70;85.30;;;;;;5033047;28;20284;-52
2024/01/03 08:15:09;;;;;;;11.45;1.92;;;11.70;85.30;;;;;;5030177;28;20037;-56
2024/01/03 08:17:36;;;;;;;12.38;2.03;;;11.70;85.40;;;;;;5028512;28;20045;-56
2024/01/03 08:20:08;;;;;;;7.05;1.75;;;11.70;85.50;;;;;;5025343;28;20423;-56
2024/01/03 08:22:40;;;;;;;6.57;2.08;;;11.70;85.90;;;;;;5015942;28;20095;-55
2024/01/03 08:25:10;;;;;;;11.10;2.00;;;11.70;85.90;;;;;;5032457;28;20087;-52
2024/01/03 08:27:38;;;;;;;9.18;1.40;;;11.70;86.20;;;;;;5027420;28;20042;-52
2024/01/03 08:30:08;;;;;;;4.28;1.35;;;11.70;86.20;;;;;;5032504;28;20041;-56
2024/01/03 08:32:40;;;;;;;6.28;1.90;;;11.70;86.40;;;;;;5032708;28;20053;-54
2024/01/03 08:35:14;;;;;;;12.02;2.30;;;11.70;86.50;;;;;;5026301;28;20040;-56
2024/01/03 08:37:41;;;;;;;7.10;1.80;;;11.80;86.60;;;;;;5031537;28;20125;-54
2024/01/03 08:40:15;;;;;;;8.38;1.95;;;11.80;86.70;;;;;;5032560;28;20116;-53
2024/01/03 08:42:44;;;;;;;5.95;2.00;;;11.80;86.60;;;;;;5028458;28;20046;-55
2024/01/03 08:45:11;;;;;;;6.15;1.88;;;11.80;86.70;;;;;;5029593;28;20095;-56
2024/01/03 08:47:40;;;;;;;7.65;2.08;;;11.90;86.60;;;;;;5031160;28;20041;-59
2024/01/03 08:50:08;;;;;;;5.97;2.30;;;11.90;86.60;;;;;;5026534;28;20041;-60
2024/01/03 08:52:37;;;;;;;8.73;1.88;;;11.90;86.70;;;;;;5032220;28;20110;-57
2024/01/03 08:55:04;;;;;;;10.23;2.85;;;11.90;86.80;;;;;;5032086;28;20084;-55
2024/01/03 08:57:38;;;;;;;9.02;2.08;;;12.00;87.00;;;;;;5027443;28;20048;-52
2024/01/03 09:00:07;;;;;;;10.63;2.20;;;12.00;87.00;;;;;;5023592;28;20046;-56
2024/01/03 09:02:33;;;;;;;9.32;2.00;;;12.10;87.00;;;;;;5031950;28;20129;-57
2024/01/03 09:05:01;;;;;;;10.20;2.35;;;12.10;86.80;;;;;;5031988;28;20438;-54
2024/01/03 09:07:29;;;;;;;12.18;2.42;;;12.10;86.60;;;;;;5027320;28;20056;-52
2024/01/03 09:09:56;;;;;;;6.28;2.22;;;12.20;86.70;;;;;;5023922;28;20389;-56
2024/01/03 09:12:24;;;;;;;6.05;1.98;;;12.20;86.70;;;;;;5031475;28;20079;-53
2024/01/03 09:14:51;;;;;;;8.90;1.92;;;12.20;86.70;;;;;;5029466;28;20045;-54
2024/01/03 09:17:21;;;;;;;6.32;2.05;;;12.20;86.70;;;;;;5025499;28;20048;-57
2024/01/03 09:19:52;;;;;;;7.45;1.80;;;12.30;86.50;;;;;;5025537;28;20046;-52
2024/01/03 09:22:26;;;;;;;6.88;2.28;;;12.30;86.70;;;;;;5030254;28;20434;-58
2024/01/03 09:24:56;;;;;;;4.68;1.50;;;12.40;86.70;;;;;;5031360;28;20052;-55
2024/01/03 09:27:26;;;;;;;7.13;1.73;;;12.40;86.70;;;;;;5026624;28;20042;-55
2024/01/03 09:29:55;;;;;;;7.85;2.53;;;12.40;86.20;;;;;;5027166;28;20087;-55
2024/01/03 09:32:25;;;;;;;8.10;2.30;;;12.40;86.10;;;;;;5031314;28;20068;-53
2024/01/03 09:34:52;;;;;;;7.95;2.45;;;12.50;85.90;;;;;;5030940;28;20034;-56
2024/01/03 09:37:21;;;;;;;8.10;1.83;;;12.50;86.20;;;;;;5025288;28;20076;-55
2024/01/03 09:39:52;;;;;;;7.85;2.08;;;12.50;85.60;;;;;;5028780;28;20045;-61
2024/01/03 09:42:28;;;;;;;7.38;2.75;;;12.50;85.50;;;;;;5031222;28;20403;-55
2024/01/03 09:45:02;;;;;;;8.60;2.38;;;12.50;85.50;;;;;;5027589;28;20396;-53
2024/01/03 09:47:32;;;;;;;5.57;2.40;;;12.50;85.40;;;;;;5024635;28;20140;-52
2024/01/03 09:49:59;;;;;;;6.65;2.15;;;12.50;85.20;;;;;;5024107;28;20064;-51
2024/01/03 09:52:26;;;;;;;9.60;2.33;;;12.50;85.00;;;;;;5030884;28;20042;-51
2024/01/03 09:54:54;;;;;;;7.13;2.35;;;12.50;85.20;;;;;;5030780;28;20396;-53
2024/01/03 09:57:29;;;;;;;8.70;2.67;;;12.50;85.40;;;;;;5028597;28;20033;-55
2024/01/03 10:00:02;;;;;;;6.03;2.33;;;12.50;85.30;;;;;;5020836;28;20046;-54
2024/01/03 10:02:36;;;;;;;10.10;2.30;;;12.50;85.20;;;;;;5027580;28;20644;-54
2024/01/03 10:05:05;;;;;;;7.53;1.92;;;12.50;85.10;;;;;;5027679;28;20068;-52
2024/01/03 10:07:36;;;;;;;9.18;2.28;;;12.50;84.80;;;;;;5026005;28;20067;-52
2024/01/03 10:10:06;;;;;;;7.55;3.05;;;12.60;84.60;;;;;;5030739;28;20068;-54
2024/01/03 10:12:35;;;;;;;10.55;2.72;;;12.60;84.80;;;;;;5030353;28;20041;-54
2024/01/03 10:15:15;;;;;;;8.82;2.40;;;12.60;84.80;;;;;;5026016;28;20037;-53
2024/01/03 10:17:46;;;;;;;9.32;2.78;;;12.60;84.90;;;;;;5025879;28;20492;-58
2024/01/03 10:20:27;;;;;;;7.28;2.42;;;12.60;84.80;;;;;;5024545;28;20052;-56
2024/01/03 10:23:14;;;;;;;9.88;2.33;;;12.60;85.30;;;;;;5030746;28;20048;-56
2024/01/03 10:25:44;;;;;;;6.78;2.47;;;12.60;85.90;;;;;;5027403;28;20098;-54
2024/01/03 10:28:15;;;;;;;7.68;2.40;;;12.60;85.20;;;;;;5025470;28;20152;-55
2024/01/03 10:30:42;;;;;;;8.27;2.42;;;12.60;85.30;;;;;;5029563;28;20407;-54
2024/01/03 10:33:10;;;;;;;8.77;3.53;;;12.60;85.30;;;;;;5030659;28;20407;-54
2024/01/03 10:35:43;;;;;;;6.95;2.30;;;12.60;85.20;;;;;;5030033;28;20585;-52
2024/01/03 10:38:10;;;;;;;7.22;2.30;;;12.60;85.30;;;;;;5025854;28;20392;-53
2024/01/03 10:40:39;;;;;;;14.55;2.85;;;12.70;85.40;;;;;;5029782;28;20045;-54
2024/01/03 10:43:08;;;;;;;10.00;2.50;;;12.70;85.60;;;;;;5029165;28;20076;-52
2024/01/03 10:45:35;;;;;;;10.60;3.22;;;12.70;85.60;;;;;;5025938;28;20443;-54
2024/01/03 10:48:05;;;;;;;9.70;2.15;;;12.80;85.80;;;;;;5024092;28;20811;-52
2024/01/03 10:50:41;;;;;;;10.65;2.50;;;12.80;85.50;;;;;;5026023;28;20119;-58
2024/01/03 10:53:09;;;;;;;8.35;2.13;;;12.90;85.00;;;;;;5030228;28;20045;-52
2024/01/03 10:55:40;;;;;;;9.77;2.20;;;12.90;84.30;;;;;;5029751;28;20073;-52
2024/01/03 10:58:20;;;;;;;8.10;2.40;;;12.90;84.00;;;;;;5021453;28;20057;-53
2024/01/03 11:01:00;;;;;;;7.15;2.20;;;13.00;83.80;;;;;;5030088;28;20038;-51
2024/01/03 11:03:36;;;;;;;8.68;2.47;;;13.00;83.50;;;;;;5030083;28;20033;-53
2024/01/03 11:06:19;;;;;;;7.97;2.85;;;13.00;83.30;;;;;;5024483;28;20052;-54
2024/01/03 11:08:50;;;;;;;7.35;2.42;;;13.00;83.50;;;;;;5026974;28;20451;-54
2024/01/03 11:11:34;;;;;;;4.93;2.15;;;13.00;83.30;;;;;;5025242;28;20048;-51
2024/01/03 11:14:20;;;;;;;7.47;2.03;;;13.00;83.30;;;;;;5029891;28;20514;-51
2024/01/03 11:16:47;;;;;;;5.88;2.33;;;13.10;83.50;;;;;;5024630;28;20041;-52
2024/01/03 11:19:14;;;;;;;6.03;1.98;;;13.10;83.40;;;;;;5022861;28;20061;-51
2024/01/03 11:21:48;;;;;;;8.00;2.58;;;13.20;83.10;;;;;;5028055;28;20041;-58
2024/01/03 11:24:21;;;;;;;9.60;2.90;;;13.20;82.60;;;;;;5030172;28;20080;-52
2024/01/03 11:27:05;;;;;;;8.05;2.00;;;13.20;82.30;;;;;;5023141;28;20187;-56
2024/01/03 11:29:36;;;;;;;11.57;2.45;;;13.30;82.20;;;;;;5024901;28;20041;-55
2024/01/03 11:32:06;;;;;;;7.22;2.75;;;13.30;82.10;;;;;;5029768;28;20037;-51
2024/01/03 11:34:39;;;;;;;8.65;2.67;;;13.30;81.90;;;;;;5025235;28;20573;-55
2024/01/03 11:37:18;;;;;;;4.63;1.80;;;13.30;81.70;;;;;;5026867;28;20037;-54
2024/01/03 11:39:49;;;;;;;7.20;2.30;;;13.30;81.60;;;;;;5029213;28;20073;-53
2024/01/03 11:42:21;;;;;;;9.77;2.25;;;13.20;80.90;;;;;;5027269;28;20092;-55
2024/01/03 11:45:19;;;;;;;10.30;2.75;;;13.20;80.80;;;;;;5033497;28;20046;-57
2024/01/03 11:47:57;;;;;;;11.35;3.00;;;13.10;81.60;;;;;;5028254;28;20064;-55
2024/01/03 11:50:31;;;;;;;6.22;2.10;;;13.00;81.60;;;;;;5028710;28;20029;-56
2024/01/03 11:53:07;;;;;;;10.15;2.30;;;12.90;82.20;;;;;;5028724;28;20033;-54
2024/01/03 11:55:34;;;;;;;7.43;2.13;;;12.90;82.50;;;;;;5031795;28;20037;-55
2024/01/03 11:58:05;;;;;;;5.82;2.10;;;12.80;82.90;;;;;;5027328;28;20049;-53
2024/01/03 12:00:32;;;;;;;10.77;2.63;;;12.80;83.40;;;;;;5030080;28;20037;-53
2024/01/03 12:02:59;;;;;;;8.85;2.38;;;12.80;83.60;;;;;;5015507;28;20056;-56
2024/01/03 12:05:27;;;;;;;6.97;2.38;;;12.90;83.80;;;;;;5032704;28;20041;-56
2024/01/03 12:07:58;;;;;;;6.45;2.20;;;12.80;83.50;;;;;;5028477;28;20076;-53
2024/01/03 12:10:26;;;;;;;8.73;3.25;;;12.90;83.10;;;;;;5030711;28;20489;-52
2024/01/03 12:12:53;;;;;;;10.30;2.28;;;12.90;83.00;;;;;;5032934;28;20041;-52
2024/01/03 12:15:28;;;;;;;9.80;2.80;;;12.80;82.90;;;;;;5032672;28;20123;-60
2024/01/03 12:18:10;;;;;;;9.50;2.72;;;12.90;83.00;;;;;;5026804;28;20071;-53
2024/01/03 12:20:39;;;;;;;7.97;2.78;;;12.80;82.90;;;;;;5025930;28;20050;-55
2024/01/03 12:23:14;;;;;;;8.90;3.00;;;12.80;82.40;;;;;;5032900;28;20140;-52
2024/01/03 12:25:43;;;;;;;9.05;2.10;;;12.80;82.50;;;;;;5032485;28;20092;-52
2024/01/03 12:28:25;;;;;;;7.10;2.38;;;12.80;82.60;;;;;;5027921;28;20408;-51
2024/01/03 12:30:58;;;;;;;10.20;3.38;;;12.80;82.40;;;;;;5031853;28;20061;-54
2024/01/03 12:33:26;;;;;;;10.35;3.08;;;12.80;82.30;;;;;;5032775;28;20385;-54
2024/01/03 12:36:01;;;;;;;12.93;2.72;;;12.80;82.40;;;;;;5031320;28;20071;-55
2024/01/03 12:38:29;;;;;;;8.05;2.50;;;12.80;82.50;;;;;;5024947;28;20045;-56
2024/01/03 12:40:58;;;;;;;10.02;2.80;;;12.80;82.60;;;;;;5032253;28;20450;-54
2024/01/03 12:43:33;;;;;;;6.50;2.47;;;12.80;82.70;;;;;;5032476;28;20041;-54
2024/01/03 12:46:04;;;;;;;9.00;3.53;;;12.80;82.90;;;;;;5028538;28;20396;-55
2024/01/03 12:48:31;;;;;;;12.73;2.65;;;12.80;82.80;;;;;;5025869;28;20053;-54
2024/01/03 12:51:00;;;;;;;10.02;3.45;;;12.90;82.90;;;;;;5029782;28;20499;-52
2024/01/03 12:53:32;;;;;;;10.13;3.15;;;12.90;83.20;;;;;;5025732;28;20047;-52
2024/01/03 12:55:59;;;;;;;9.50;2.40;;;12.90;82.70;;;;;;5031792;28;20507;-56
2024/01/03 12:58:25;;;;;;;7.80;1.85;;;12.90;82.50;;;;;;5028077;28;20033;-54
2024/01/03 13:00:57;;;;;;;8.43;2.33;;;13.00;82.40;;;;;;5014127;28;20045;-53